createdAt,value
2023-03-04T00:01:46.165Z,78.19
2023-03-04T00:03:19.851Z,78.38
2023-03-04T00:05:05.038Z,78.26
2023-03-04T00:06:59.477Z,78.49
2023-03-04T00:08:53.492Z,78.87
2023-03-04T00:10:38.526Z,79.01
2023-03-04T00:12:00.207Z,78.87
2023-03-04T00:13:26.624Z,78.74
2023-03-04T00:15:00.257Z,78.74
2023-03-04T00:16:21.979Z,78.97
2023-03-04T00:17:51.270Z,78.73
2023-03-04T00:19:15.914Z,79.21
2023-03-04T00:20:59.720Z,79.28
2023-03-04T00:22:40.318Z,79.45
2023-03-04T00:24:33.230Z,79.46
2023-03-04T00:26:17.867Z,79.97
2023-03-04T00:28:04.422Z,79.85
2023-03-04T00:29:52.098Z,79.95
2023-03-04T00:31:27.427Z,79.88
2023-03-04T00:33:03.674Z,79.88
2023-03-04T00:34:48.665Z,80.11
2023-03-04T00:36:42.562Z,80.14
2023-03-04T00:38:15.747Z,80.35
2023-03-04T00:40:01.564Z,80.27
2023-03-04T00:41:35.450Z,79.96
2023-03-04T00:43:04.367Z,80.04
2023-03-04T00:44:53.613Z,79.95
2023-03-04T00:46:23.131Z,79.58
2023-03-04T00:47:56.255Z,79.61
2023-03-04T00:49:40.850Z,79.81
2023-03-04T00:51:06.875Z,79.78
2023-03-04T00:52:43.050Z,80.10
2023-03-04T00:54:30.814Z,80.07
2023-03-04T00:56:11.377Z,80.22
2023-03-04T00:57:58.800Z,80.46
2023-03-04T00:59:43.942Z,80.03
2023-03-04T01:01:17.032Z,80.21
2023-03-04T01:03:02.660Z,80.15
2023-03-04T01:04:47.774Z,80.32
2023-03-04T01:06:40.638Z,80.30
2023-03-04T01:08:16.011Z,80.56
2023-03-04T01:10:10.535Z,80.55
2023-03-04T01:11:58.427Z,80.51
2023-03-04T01:13:53.564Z,80.64
2023-03-04T01:15:27.372Z,80.21
2023-03-04T01:17:12.103Z,80.43
2023-03-04T01:19:06.489Z,80.75
2023-03-04T01:20:47.357Z,80.58
2023-03-04T01:22:20.692Z,80.77
2023-03-04T01:23:54.682Z,80.66
2023-03-04T01:25:39.489Z,80.57
2023-03-04T01:27:34.524Z,80.66
2023-03-04T01:29:19.206Z,80.61
2023-03-04T01:31:00.147Z,80.55
2023-03-04T01:32:34.129Z,80.44
2023-03-04T01:34:20.499Z,80.33
2023-03-04T01:36:01.955Z,80.24
2023-03-04T01:37:47.462Z,80.16
2023-03-04T01:39:32.685Z,80.03
2023-03-04T01:41:17.649Z,79.95
2023-03-04T01:43:00.577Z,80.07
2023-03-04T01:44:33.792Z,80.03
2023-03-04T01:45:58.126Z,80.14
2023-03-04T01:47:34.660Z,80.03
2023-03-04T01:49:19.486Z,79.89
2023-03-04T01:50:43.718Z,79.64
2023-03-04T01:52:16.796Z,79.70
2023-03-04T01:54:03.146Z,79.63
2023-03-04T01:55:36.458Z,79.62
2023-03-04T01:57:21.566Z,79.36
2023-03-04T01:58:57.250Z,79.62
2023-03-04T02:00:42.878Z,79.29
2023-03-04T02:02:33.714Z,79.19
2023-03-04T02:04:09.343Z,79.06
2023-03-04T02:05:36.076Z,79.01
2023-03-04T02:07:20.923Z,78.52
2023-03-04T02:08:45.225Z,78.29
2023-03-04T02:10:25.897Z,78.27
2023-03-04T02:12:02.222Z,78.39
2023-03-04T02:13:36.959Z,78.54
2023-03-04T02:15:08.461Z,78.35
2023-03-04T02:16:32.919Z,78.34
2023-03-04T02:18:17.815Z,78.19
2023-03-04T02:19:44.383Z,78.22
2023-03-04T02:21:29.288Z,77.78
2023-03-04T02:23:10.734Z,77.71
2023-03-04T02:24:46.467Z,77.88
2023-03-04T02:26:22.168Z,77.73
2023-03-04T02:28:09.840Z,77.81
2023-03-04T02:30:04.468Z,77.61
2023-03-04T02:31:40.733Z,77.55
2023-03-04T02:33:05.034Z,77.62
2023-03-04T02:34:41.558Z,77.50
2023-03-04T02:36:07.307Z,77.34
2023-03-04T02:37:41.416Z,77.50
2023-03-04T02:39:14.540Z,77.49
2023-03-04T02:40:40.622Z,77.29
2023-03-04T02:42:13.781Z,77.45
2023-03-04T02:43:59.003Z,77.25
2023-03-04T02:45:44.392Z,76.58
2023-03-04T02:47:20.666Z,76.48
2023-03-04T02:49:06.407Z,76.39
2023-03-04T02:50:42.334Z,76.33
2023-03-04T02:52:15.594Z,76.35
2023-03-04T02:53:47.502Z,76.41
2023-03-04T02:55:40.705Z,76.45
2023-03-04T02:57:16.493Z,76.28
2023-03-04T02:58:53.776Z,76.15
2023-03-04T03:00:46.796Z,75.91
2023-03-04T03:02:10.509Z,75.73
2023-03-04T03:04:03.652Z,75.71
2023-03-04T03:05:46.265Z,75.87
2023-03-04T03:07:20.274Z,76.07
2023-03-04T03:08:43.201Z,75.94
2023-03-04T03:10:23.759Z,76.19
2023-03-04T03:11:59.535Z,76.04
2023-03-04T03:13:29.132Z,75.92
2023-03-04T03:15:13.979Z,75.57
2023-03-04T03:16:59.021Z,75.63
2023-03-04T03:18:48.211Z,75.52
2023-03-04T03:20:14.496Z,75.48
2023-03-04T03:21:47.749Z,75.56
2023-03-04T03:23:21.200Z,75.37
2023-03-04T03:24:55.062Z,75.49
2023-03-04T03:26:40.058Z,75.28
2023-03-04T03:28:14.309Z,75.32
2023-03-04T03:29:47.780Z,75.21
2023-03-04T03:31:28.291Z,74.98
2023-03-04T03:33:07.227Z,74.74
2023-03-04T03:34:31.966Z,74.86
2023-03-04T03:36:08.323Z,75.25
2023-03-04T03:38:01.097Z,75.42
2023-03-04T03:39:36.213Z,75.51
2023-03-04T03:41:09.592Z,75.56
2023-03-04T03:43:02.747Z,75.33
2023-03-04T03:44:48.279Z,75.06
2023-03-04T03:46:33.323Z,74.89
2023-03-04T03:48:18.623Z,74.99
2023-03-04T03:50:03.734Z,75.12
2023-03-04T03:51:39.468Z,75.20
2023-03-04T03:53:24.438Z,75.26
2023-03-04T03:55:09.659Z,74.94
2023-03-04T03:56:55.890Z,74.80
2023-03-04T03:58:41.053Z,74.69
2023-03-04T04:00:25.751Z,74.83
2023-03-04T04:02:02.600Z,74.85
2023-03-04T04:03:32.165Z,74.90
2023-03-04T04:05:16.994Z,75.06
2023-03-04T04:06:51.779Z,75.39
2023-03-04T04:08:17.555Z,74.79
2023-03-04T04:09:57.489Z,74.61
2023-03-04T04:11:38.694Z,74.45
2023-03-04T04:13:33.455Z,74.29
2023-03-04T04:15:09.480Z,74.22
2023-03-04T04:16:54.781Z,74.33
2023-03-04T04:18:28.975Z,74.37
2023-03-04T04:20:00.722Z,74.51
2023-03-04T04:21:33.887Z,74.66
2023-03-04T04:23:07.497Z,74.37
2023-03-04T04:24:52.403Z,74.18
2023-03-04T04:26:25.845Z,74.08
2023-03-04T04:28:11.304Z,73.77
2023-03-04T04:30:02.787Z,73.53
2023-03-04T04:31:37.017Z,73.49
2023-03-04T04:33:10.737Z,73.71
2023-03-04T04:34:44.262Z,73.70
2023-03-04T04:36:30.842Z,73.69
2023-03-04T04:38:16.014Z,73.51
2023-03-04T04:39:51.696Z,73.53
2023-03-04T04:41:31.945Z,72.96
2023-03-04T04:43:12.781Z,72.69
2023-03-04T04:45:00.377Z,72.72
2023-03-04T04:46:48.163Z,73.07
2023-03-04T04:48:21.489Z,73.31
2023-03-04T04:50:06.558Z,73.52
2023-03-04T04:51:39.788Z,73.48
2023-03-04T04:53:24.836Z,73.28
2023-03-04T04:55:09.833Z,72.76
2023-03-04T04:56:43.560Z,72.75
2023-03-04T04:58:16.748Z,72.59
2023-03-04T04:59:41.085Z,72.52
2023-03-04T05:01:34.622Z,72.66
2023-03-04T05:03:23.176Z,72.97
2023-03-04T05:05:05.173Z,73.10
2023-03-04T05:06:46.240Z,72.93
2023-03-04T05:08:10.399Z,72.78
2023-03-04T05:10:00.421Z,72.80
2023-03-04T05:11:29.376Z,72.54
2023-03-04T05:13:01.536Z,72.40
2023-03-04T05:14:35.360Z,72.36
2023-03-04T05:16:28.352Z,72.46
2023-03-04T05:18:01.995Z,72.50
2023-03-04T05:19:42.744Z,72.78
2023-03-04T05:21:06.608Z,72.72
2023-03-04T05:22:58.215Z,72.75
2023-03-04T05:24:32.774Z,72.50
2023-03-04T05:26:06.143Z,72.71
2023-03-04T05:27:59.811Z,72.53
2023-03-04T05:29:47.746Z,72.38
2023-03-04T05:31:32.121Z,72.15
2023-03-04T05:33:16.704Z,72.35
2023-03-04T05:34:43.475Z,72.48
2023-03-04T05:36:28.323Z,72.76
2023-03-04T05:38:01.881Z,72.61
2023-03-04T05:39:56.494Z,72.63
2023-03-04T05:41:30.916Z,72.17
2023-03-04T05:43:03.854Z,72.20
2023-03-04T05:44:37.195Z,72.29
2023-03-04T05:46:14.021Z,72.28
2023-03-04T05:47:51.928Z,72.19
2023-03-04T05:49:25.314Z,72.64
2023-03-04T05:51:03.450Z,72.67
2023-03-04T05:52:32.558Z,72.47
2023-03-04T05:54:13.529Z,72.24
2023-03-04T05:55:38.285Z,71.90
2023-03-04T05:57:11.531Z,72.01
2023-03-04T05:58:47.453Z,71.87
2023-03-04T06:00:20.634Z,72.08
2023-03-04T06:01:58.458Z,71.89
2023-03-04T06:03:53.551Z,72.30
2023-03-04T06:05:47.217Z,72.51
2023-03-04T06:07:31.786Z,72.45
2023-03-04T06:09:05.282Z,72.42
2023-03-04T06:10:53.775Z,72.37
2023-03-04T06:12:28.798Z,72.31
2023-03-04T06:13:58.073Z,72.04
2023-03-04T06:15:51.636Z,71.89
2023-03-04T06:17:15.455Z,72.03
2023-03-04T06:19:01.262Z,72.18
2023-03-04T06:20:55.507Z,72.39
2023-03-04T06:22:50.496Z,72.10
2023-03-04T06:24:40.379Z,72.05
2023-03-04T06:26:16.415Z,71.97
2023-03-04T06:27:41.187Z,72.21
2023-03-04T06:29:14.688Z,71.58
2023-03-04T06:31:00.185Z,71.93
2023-03-04T06:32:53.582Z,72.00
2023-03-04T06:34:45.346Z,72.26
2023-03-04T06:36:31.868Z,72.26
2023-03-04T06:38:05.682Z,72.24
2023-03-04T06:39:38.878Z,71.98
2023-03-04T06:41:12.348Z,71.96
2023-03-04T06:42:46.122Z,71.84
2023-03-04T06:44:19.283Z,71.95
2023-03-04T06:46:04.722Z,71.89
2023-03-04T06:47:50.149Z,72.21
2023-03-04T06:49:30.756Z,72.35
2023-03-04T06:50:52.506Z,72.40
2023-03-04T06:52:38.208Z,72.50
2023-03-04T06:54:14.035Z,72.31
2023-03-04T06:55:59.592Z,72.01
2023-03-04T06:57:48.651Z,71.98
2023-03-04T06:59:33.294Z,72.09
2023-03-04T07:01:18.152Z,71.82
2023-03-04T07:02:55.309Z,71.77
2023-03-04T07:04:30.684Z,72.04
2023-03-04T07:05:55.428Z,72.17
2023-03-04T07:07:28.839Z,72.32
2023-03-04T07:09:04.491Z,72.50
2023-03-04T07:10:37.999Z,72.36
2023-03-04T07:12:11.381Z,72.36
2023-03-04T07:13:59.278Z,72.25
2023-03-04T07:15:33.034Z,71.85
2023-03-04T07:16:56.993Z,71.92
2023-03-04T07:18:44.476Z,72.18
2023-03-04T07:20:19.978Z,72.40
2023-03-04T07:21:53.905Z,72.40
2023-03-04T07:23:38.928Z,72.27
2023-03-04T07:25:23.765Z,72.27
2023-03-04T07:27:08.973Z,72.20
2023-03-04T07:28:52.407Z,72.17
2023-03-04T07:30:25.934Z,72.21
2023-03-04T07:31:59.609Z,72.21
2023-03-04T07:33:45.000Z,72.28
2023-03-04T07:35:29.979Z,72.40
2023-03-04T07:37:14.802Z,72.51
2023-03-04T07:39:00.139Z,72.33
2023-03-04T07:40:35.751Z,72.16
2023-03-04T07:42:09.256Z,72.28
2023-03-04T07:43:35.450Z,72.07
2023-03-04T07:45:08.829Z,72.22
2023-03-04T07:46:44.739Z,72.22
2023-03-04T07:48:18.003Z,72.14
2023-03-04T07:49:57.602Z,72.16
2023-03-04T07:51:42.575Z,72.58
2023-03-04T07:53:08.484Z,72.20
2023-03-04T07:54:42.321Z,72.27
2023-03-04T07:56:22.849Z,72.11
2023-03-04T07:58:07.502Z,72.16
2023-03-04T07:59:41.196Z,71.75
2023-03-04T08:01:14.102Z,71.83
2023-03-04T08:02:56.983Z,71.71
2023-03-04T08:04:23.241Z,71.75
2023-03-04T08:05:47.798Z,71.83
2023-03-04T08:07:23.089Z,72.17
2023-03-04T08:09:07.867Z,72.21
2023-03-04T08:10:34.379Z,72.11
2023-03-04T08:12:14.587Z,71.92
2023-03-04T08:14:03.149Z,71.61
2023-03-04T08:15:53.513Z,71.57
2023-03-04T08:17:34.435Z,71.52
2023-03-04T08:19:08.018Z,71.31
2023-03-04T08:20:53.416Z,71.51
2023-03-04T08:22:24.631Z,71.59
2023-03-04T08:24:10.173Z,71.73
2023-03-04T08:26:03.946Z,71.54
2023-03-04T08:27:25.618Z,71.02
2023-03-04T08:29:01.413Z,71.14
2023-03-04T08:30:52.777Z,71.24
2023-03-04T08:32:38.717Z,71.11
2023-03-04T08:34:10.596Z,71.26
2023-03-04T08:35:48.182Z,71.17
2023-03-04T08:37:33.448Z,71.35
2023-03-04T08:39:07.141Z,71.19
2023-03-04T08:40:52.868Z,71.09
2023-03-04T08:42:37.884Z,70.92
2023-03-04T08:44:19.172Z,70.95
2023-03-04T08:46:04.635Z,70.70
2023-03-04T08:47:40.868Z,70.44
2023-03-04T08:49:05.292Z,70.74
2023-03-04T08:50:58.754Z,70.83
2023-03-04T08:52:34.009Z,71.14
2023-03-04T08:54:05.670Z,71.29
2023-03-04T08:55:41.449Z,71.12
2023-03-04T08:57:15.060Z,71.07
2023-03-04T08:59:02.754Z,71.03
2023-03-04T09:00:43.812Z,70.91
2023-03-04T09:02:08.027Z,70.79
2023-03-04T09:03:39.402Z,70.73
2023-03-04T09:05:14.593Z,70.87
2023-03-04T09:06:48.225Z,71.10
2023-03-04T09:08:40.159Z,71.46
2023-03-04T09:10:33.809Z,71.40
2023-03-04T09:12:07.755Z,71.33
2023-03-04T09:13:37.332Z,71.22
2023-03-04T09:15:13.104Z,71.23
2023-03-04T09:16:48.989Z,71.14
2023-03-04T09:18:38.155Z,70.79
2023-03-04T09:20:23.460Z,71.14
2023-03-04T09:22:08.687Z,71.25
2023-03-04T09:23:53.887Z,71.73
2023-03-04T09:25:48.493Z,71.80
2023-03-04T09:27:33.671Z,71.64
2023-03-04T09:29:18.808Z,71.68
2023-03-04T09:31:03.936Z,71.55
2023-03-04T09:32:39.953Z,71.42
2023-03-04T09:34:20.425Z,71.39
2023-03-04T09:36:01.418Z,71.76
2023-03-04T09:37:48.821Z,71.56
2023-03-04T09:39:24.056Z,71.89
2023-03-04T09:41:05.427Z,71.92
2023-03-04T09:42:52.281Z,71.86
2023-03-04T09:44:37.536Z,71.74
2023-03-04T09:46:07.012Z,71.73
2023-03-04T09:47:52.336Z,71.49
2023-03-04T09:49:13.752Z,71.55
2023-03-04T09:51:00.513Z,71.34
2023-03-04T09:52:46.083Z,71.46
2023-03-04T09:54:26.420Z,71.70
2023-03-04T09:56:11.460Z,71.64
2023-03-04T09:58:05.136Z,71.38
2023-03-04T09:59:58.768Z,71.44
2023-03-04T10:01:44.324Z,70.97
2023-03-04T10:03:17.446Z,71.03
2023-03-04T10:05:08.761Z,71.10
2023-03-04T10:06:54.503Z,71.03
2023-03-04T10:08:41.150Z,71.37
2023-03-04T10:10:21.718Z,71.55
2023-03-04T10:12:06.578Z,71.67
2023-03-04T10:16:01.479Z,71.51
2023-03-04T10:17:43.096Z,71.43
2023-03-04T10:19:18.382Z,71.18
2023-03-04T10:21:01.501Z,71.44
2023-03-04T10:22:48.808Z,71.21
2023-03-04T10:24:29.318Z,71.77
2023-03-04T10:26:03.000Z,71.98
2023-03-04T10:27:36.523Z,71.73
2023-03-04T10:29:09.622Z,71.51
2023-03-04T10:30:55.129Z,71.64
2023-03-04T10:32:40.121Z,71.73
2023-03-04T10:34:20.466Z,71.53
2023-03-04T10:36:05.794Z,71.32
2023-03-04T10:38:00.441Z,71.51
2023-03-04T10:39:34.055Z,71.64
2023-03-04T10:41:06.940Z,71.56
2023-03-04T10:42:40.837Z,71.24
2023-03-04T10:44:16.364Z,71.76
2023-03-04T10:45:52.054Z,71.34
2023-03-04T10:47:25.459Z,71.63
2023-03-04T10:48:50.810Z,71.64
2023-03-04T10:50:35.729Z,71.48
2023-03-04T10:52:08.655Z,71.38
2023-03-04T10:53:30.039Z,71.66
2023-03-04T10:55:03.692Z,71.56
2023-03-04T10:56:39.215Z,71.87
2023-03-04T10:58:12.702Z,72.14
2023-03-04T10:59:53.719Z,71.82
2023-03-04T11:01:25.103Z,71.37
2023-03-04T11:03:10.343Z,71.47
2023-03-04T11:04:55.592Z,71.63
2023-03-04T11:06:40.511Z,71.31
2023-03-04T11:08:19.053Z,71.66
2023-03-04T11:10:04.279Z,71.85
2023-03-04T11:11:38.433Z,71.81
2023-03-04T11:13:23.418Z,71.67
2023-03-04T11:14:59.168Z,71.85
2023-03-04T11:16:44.338Z,71.77
2023-03-04T11:18:29.181Z,71.49
2023-03-04T11:20:03.450Z,71.46
2023-03-04T11:21:48.459Z,71.61
2023-03-04T11:23:33.446Z,71.84
2023-03-04T11:25:18.522Z,72.01
2023-03-04T11:26:52.173Z,72.22
2023-03-04T11:28:25.084Z,72.10
2023-03-04T11:30:10.275Z,71.91
2023-03-04T11:31:55.847Z,71.84
2023-03-04T11:33:38.415Z,71.87
2023-03-04T11:35:23.619Z,71.78
2023-03-04T11:36:57.272Z,72.08
2023-03-04T11:38:26.166Z,72.37
2023-03-04T11:39:59.518Z,72.46
2023-03-04T11:41:32.731Z,72.66
2023-03-04T11:43:13.584Z,72.42
2023-03-04T11:44:51.240Z,72.09
2023-03-04T11:46:45.436Z,72.02
2023-03-04T11:48:29.906Z,71.96
2023-03-04T11:50:14.931Z,71.72
2023-03-04T11:51:59.983Z,72.07
2023-03-04T11:53:45.277Z,72.28
2023-03-04T11:55:34.143Z,72.35
2023-03-04T11:57:07.688Z,71.99
2023-03-04T11:59:02.450Z,71.71
2023-03-04T12:00:35.740Z,71.44
2023-03-04T12:02:08.949Z,71.87
2023-03-04T12:03:54.472Z,71.86
2023-03-04T12:05:39.285Z,71.80
2023-03-04T12:07:24.650Z,71.82
2023-03-04T12:08:46.853Z,72.14
2023-03-04T12:10:31.359Z,71.97
2023-03-04T12:12:16.270Z,71.76
2023-03-04T12:14:04.130Z,71.98
2023-03-04T12:15:37.512Z,71.65
2023-03-04T12:17:18.380Z,71.58
2023-03-04T12:18:52.177Z,71.66
2023-03-04T12:20:25.565Z,71.73
2023-03-04T12:21:59.078Z,71.47
2023-03-04T12:23:40.132Z,71.66
2023-03-04T12:25:15.669Z,71.91
2023-03-04T12:27:11.484Z,71.91
2023-03-04T12:29:03.946Z,72.06
2023-03-04T12:30:37.510Z,71.69
2023-03-04T12:32:11.061Z,71.64
2023-03-04T12:33:44.764Z,71.53
2023-03-04T12:35:25.308Z,71.63
2023-03-04T12:37:10.314Z,71.89
2023-03-04T12:38:51.116Z,72.02
2023-03-04T12:40:27.052Z,72.00
2023-03-04T12:42:12.329Z,71.91
2023-03-04T12:43:45.854Z,71.73
2023-03-04T12:45:27.252Z,71.69
2023-03-04T12:47:11.894Z,71.46
2023-03-04T12:49:06.469Z,71.32
2023-03-04T12:50:40.201Z,71.36
2023-03-04T12:52:15.617Z,71.47
2023-03-04T12:54:01.072Z,71.56
2023-03-04T12:55:42.804Z,71.69
2023-03-04T12:57:16.410Z,71.41
2023-03-04T12:59:01.787Z,71.23
2023-03-04T13:00:37.140Z,70.94
2023-03-04T13:02:12.531Z,71.23
2023-03-04T13:03:52.009Z,71.21
2023-03-04T13:05:27.193Z,70.87
2023-03-04T13:07:13.136Z,70.97
2023-03-04T13:08:56.121Z,70.74
2023-03-04T13:10:50.416Z,70.50
2023-03-04T13:12:16.395Z,70.10
2023-03-04T13:14:02.230Z,70.08
2023-03-04T13:15:38.048Z,69.95
2023-03-04T13:17:13.248Z,69.44
2023-03-04T13:18:58.570Z,69.28
2023-03-04T13:20:43.387Z,69.44
2023-03-04T13:22:28.127Z,69.53
2023-03-04T13:24:02.177Z,69.75
2023-03-04T13:25:35.785Z,69.47
2023-03-04T13:27:09.244Z,69.31
2023-03-04T13:28:42.735Z,69.34
2023-03-04T13:30:23.521Z,69.23
2023-03-04T13:31:57.446Z,69.10
2023-03-04T13:33:37.380Z,69.21
2023-03-04T13:35:24.023Z,68.86
2023-03-04T13:37:09.262Z,68.57
2023-03-04T13:38:48.286Z,68.89
2023-03-04T13:40:21.369Z,69.02
2023-03-04T13:41:56.554Z,68.98
2023-03-04T13:43:29.818Z,68.94
2023-03-04T13:45:14.719Z,68.80
2023-03-04T13:47:12.389Z,68.55
2023-03-04T13:48:53.346Z,68.20
2023-03-04T13:50:37.117Z,68.48
2023-03-04T13:52:13.343Z,68.62
2023-03-04T13:53:55.780Z,68.69
2023-03-04T13:55:28.825Z,69.14
2023-03-04T13:57:13.726Z,69.28
2023-03-04T13:59:04.905Z,69.53
2023-03-04T14:00:51.741Z,69.71
2023-03-04T14:02:25.134Z,69.61
2023-03-04T14:04:10.390Z,69.35
2023-03-04T14:05:55.811Z,69.28
2023-03-04T14:07:29.045Z,69.71
2023-03-04T14:09:02.359Z,69.81
2023-03-04T14:10:47.339Z,70.31
2023-03-04T14:12:09.127Z,70.92
2023-03-04T14:13:42.967Z,71.25
2023-03-04T14:15:12.252Z,71.52
2023-03-04T14:17:06.270Z,71.78
2023-03-04T14:18:38.506Z,71.80
2023-03-04T14:20:32.428Z,71.92
2023-03-04T14:21:54.517Z,72.52
2023-03-04T14:23:27.629Z,72.94
2023-03-04T14:25:12.576Z,73.17
2023-03-04T14:27:07.411Z,73.75
2023-03-04T14:28:43.283Z,73.79
2023-03-04T14:30:09.827Z,73.88
2023-03-04T14:31:43.629Z,73.58
2023-03-04T14:33:37.422Z,73.44
2023-03-04T14:35:32.440Z,73.04
2023-03-04T14:37:17.229Z,73.05
2023-03-04T14:39:02.506Z,73.34
2023-03-04T14:40:47.901Z,73.51
2023-03-04T14:42:23.554Z,73.68
2023-03-04T14:43:53.490Z,74.08
2023-03-04T14:45:38.508Z,74.04
2023-03-04T14:47:24.368Z,73.97
2023-03-04T14:48:53.925Z,74.12
2023-03-04T14:50:27.396Z,74.20
2023-03-04T14:52:08.845Z,74.38
2023-03-04T14:53:53.776Z,73.87
2023-03-04T14:57:59.424Z,73.98
2023-03-04T14:59:32.914Z,74.15
2023-03-04T15:00:55.437Z,73.88
2023-03-04T15:02:35.907Z,73.72
2023-03-04T15:04:11.182Z,73.83
2023-03-04T15:05:46.924Z,73.88
2023-03-04T15:07:28.449Z,73.76
2023-03-04T15:09:02.065Z,73.86
2023-03-04T15:10:31.445Z,73.73
2023-03-04T15:12:13.326Z,73.60
2023-03-04T15:13:59.311Z,73.40
2023-03-04T15:15:28.045Z,73.34
2023-03-04T15:17:10.568Z,72.99
2023-03-04T15:18:44.259Z,72.60
2023-03-04T15:20:08.584Z,72.86
2023-03-04T15:21:44.789Z,72.70
2023-03-04T15:23:17.559Z,72.95
2023-03-04T15:24:42.329Z,72.71
2023-03-04T15:26:27.231Z,73.05
2023-03-04T15:28:02.867Z,72.87
2023-03-04T15:29:36.649Z,72.92
2023-03-04T15:31:05.642Z,73.27
2023-03-04T15:32:29.416Z,73.17
2023-03-04T15:34:05.022Z,72.91
2023-03-04T15:35:46.288Z,73.17
2023-03-04T15:37:40.425Z,73.01
2023-03-04T15:39:33.596Z,72.74
2023-03-04T15:41:07.274Z,72.57
2023-03-04T15:43:01.418Z,72.88
2023-03-04T15:44:46.005Z,72.79
2023-03-04T15:46:40.495Z,72.67
2023-03-04T15:48:09.587Z,72.98
2023-03-04T15:50:04.390Z,72.58
2023-03-04T15:51:40.366Z,72.73
2023-03-04T15:53:25.178Z,72.54
2023-03-04T15:55:10.162Z,72.89
2023-03-04T15:57:02.766Z,73.08
2023-03-04T15:58:27.046Z,72.99
2023-03-04T16:00:12.165Z,73.22
2023-03-04T16:01:53.102Z,73.33
2023-03-04T16:03:38.009Z,73.39
2023-03-04T16:05:22.993Z,73.33
2023-03-04T16:06:59.382Z,73.56
2023-03-04T16:08:43.962Z,73.44
2023-03-04T16:10:08.140Z,73.59
2023-03-04T16:12:01.349Z,73.74
2023-03-04T16:13:25.070Z,73.91
2023-03-04T16:15:06.752Z,74.04
2023-03-04T16:16:53.568Z,74.04
2023-03-04T16:18:38.403Z,74.14
2023-03-04T16:20:08.006Z,74.37
2023-03-04T16:21:53.351Z,74.17
2023-03-04T16:23:47.385Z,74.20
2023-03-04T16:25:28.390Z,74.46
2023-03-04T16:27:13.805Z,74.79
2023-03-04T16:28:40.125Z,74.81
2023-03-04T16:30:09.238Z,74.96
2023-03-04T16:31:40.478Z,74.86
2023-03-04T16:33:24.988Z,74.95
2023-03-04T16:35:10.455Z,75.28
2023-03-04T16:36:55.716Z,75.06
2023-03-04T16:38:49.432Z,75.34
2023-03-04T16:40:43.392Z,75.49
2023-03-04T16:42:28.473Z,75.52
2023-03-04T16:44:13.612Z,75.65
2023-03-04T16:45:58.891Z,75.81
2023-03-04T16:47:53.431Z,75.73
2023-03-04T16:49:34.144Z,75.79
2023-03-04T16:51:09.043Z,76.09
2023-03-04T16:52:42.736Z,76.02
2023-03-04T16:54:15.889Z,76.01
2023-03-04T16:56:01.053Z,76.11
2023-03-04T16:57:55.408Z,76.10
2023-03-04T16:59:35.817Z,76.17
2023-03-04T17:01:21.259Z,76.29
2023-03-04T17:03:07.024Z,76.21
2023-03-04T17:05:00.580Z,76.38
2023-03-04T17:06:54.054Z,76.33
2023-03-04T17:08:40.130Z,76.47
2023-03-04T17:10:25.096Z,76.63
2023-03-04T17:12:00.875Z,76.61
2023-03-04T17:13:41.934Z,76.68
2023-03-04T17:15:30.133Z,76.61
2023-03-04T17:17:17.488Z,76.69
2023-03-04T17:19:03.951Z,76.69
2023-03-04T17:20:39.896Z,76.52
2023-03-04T17:22:25.415Z,76.56
2023-03-04T17:24:11.361Z,76.74
2023-03-04T17:25:57.067Z,76.54
2023-03-04T17:27:32.393Z,76.70
2023-03-04T17:29:01.834Z,76.69
2023-03-04T17:30:53.138Z,76.43
2023-03-04T17:32:28.439Z,76.04
2023-03-04T17:34:13.360Z,75.48
2023-03-04T17:35:49.495Z,74.91
2023-03-04T17:37:13.359Z,74.59
2023-03-04T17:39:08.482Z,74.42
2023-03-04T17:40:55.837Z,74.12
2023-03-04T17:42:24.541Z,73.81
2023-03-04T17:43:58.042Z,72.83
2023-03-04T17:45:21.621Z,71.90
2023-03-04T17:47:07.065Z,71.20
2023-03-04T17:48:40.433Z,70.69
2023-03-04T17:50:25.401Z,70.38
2023-03-04T17:52:10.559Z,70.26
2023-03-04T17:56:10.432Z,69.18
2023-03-04T17:57:42.396Z,68.84
2023-03-04T17:59:15.595Z,68.39
2023-03-04T18:01:01.331Z,67.78
2023-03-04T18:02:48.408Z,66.75
2023-03-04T18:04:33.433Z,66.24
2023-03-04T18:06:18.269Z,65.86
2023-03-04T18:08:03.733Z,65.60
2023-03-04T18:09:37.166Z,64.64
2023-03-04T18:11:10.248Z,64.61
2023-03-04T18:13:04.005Z,63.65
2023-03-04T18:14:49.410Z,63.37
2023-03-04T18:16:26.549Z,62.59
2023-03-04T18:18:08.114Z,62.02
2023-03-04T18:19:37.431Z,61.03
2023-03-04T18:21:22.137Z,60.77
2023-03-04T18:23:08.320Z,60.44
2023-03-04T18:24:44.484Z,60.25
2023-03-04T18:26:29.273Z,60.35
2023-03-04T18:28:05.301Z,60.31
2023-03-04T18:29:29.536Z,60.59
2023-03-04T18:31:03.253Z,60.45
2023-03-04T18:32:57.438Z,60.17
2023-03-04T18:34:42.667Z,60.02
2023-03-04T18:36:16.112Z,59.28
2023-03-04T18:38:11.404Z,58.93
2023-03-04T18:39:44.586Z,58.02
2023-03-04T18:41:27.487Z,58.12
2023-03-04T18:43:04.848Z,58.12
2023-03-04T18:46:44.999Z,57.92
2023-03-04T18:48:31.798Z,57.88
2023-03-04T18:50:04.790Z,57.49
2023-03-04T18:51:40.261Z,57.22
2023-03-04T18:53:14.081Z,57.30
2023-03-04T18:54:43.539Z,57.24
2023-03-04T18:56:30.121Z,57.10
2023-03-04T18:58:16.075Z,56.64
2023-03-04T19:00:02.011Z,56.38
2023-03-04T19:01:31.132Z,55.91
2023-03-04T19:03:05.083Z,55.80
2023-03-04T19:04:41.142Z,56.04
2023-03-04T19:06:16.695Z,55.67
2023-03-04T19:07:52.866Z,55.52
2023-03-04T19:09:47.469Z,55.35
2023-03-04T19:11:40.224Z,55.27
2023-03-04T19:13:05.453Z,54.87
2023-03-04T19:14:38.566Z,55.05
2023-03-04T19:16:23.582Z,54.72
2023-03-04T19:18:09.289Z,54.86
2023-03-04T19:20:05.425Z,54.92
2023-03-04T19:21:49.427Z,54.43
2023-03-04T19:23:34.535Z,54.27
2023-03-04T19:25:15.277Z,53.98
2023-03-04T19:26:49.475Z,54.18
2023-03-04T19:28:33.947Z,54.26
2023-03-04T19:30:18.604Z,54.52
2023-03-04T19:31:41.466Z,54.83
2023-03-04T19:33:14.872Z,54.94
2023-03-04T19:35:06.107Z,54.91
2023-03-04T19:36:27.787Z,55.37
2023-03-04T19:38:13.081Z,55.06
2023-03-04T19:39:59.203Z,55.25
2023-03-04T19:41:44.320Z,54.95
2023-03-04T19:43:25.023Z,54.90
2023-03-04T19:45:10.337Z,55.01
2023-03-04T19:46:33.869Z,55.00
2023-03-04T19:48:18.732Z,55.30
2023-03-04T19:49:52.539Z,55.50
2023-03-04T19:51:36.209Z,55.57
2023-03-04T19:53:20.729Z,55.17
2023-03-04T19:54:54.461Z,55.70
2023-03-04T19:56:30.577Z,55.40
2023-03-04T19:58:11.361Z,55.58
2023-03-04T19:59:44.652Z,55.43
2023-03-04T20:01:25.802Z,55.45
2023-03-04T20:03:10.913Z,55.52
2023-03-04T20:04:51.576Z,55.75
2023-03-04T20:08:26.744Z,56.29
2023-03-04T20:10:11.696Z,56.58
2023-03-04T20:11:56.582Z,56.57
2023-03-04T20:13:42.314Z,56.82
2023-03-04T20:15:26.946Z,56.70
2023-03-04T20:17:15.007Z,56.78
2023-03-04T20:19:08.462Z,55.84
2023-03-04T20:20:53.371Z,56.12
2023-03-04T20:22:38.054Z,56.49
2023-03-04T20:24:32.383Z,56.02
2023-03-04T20:26:13.313Z,56.42
2023-03-04T20:28:07.746Z,56.20
2023-03-04T20:30:03.922Z,56.44
2023-03-04T20:31:58.036Z,56.29
2023-03-04T20:33:21.559Z,55.95
2023-03-04T20:35:08.883Z,56.44
2023-03-04T20:36:30.594Z,56.37
2023-03-04T20:37:59.834Z,56.02
2023-03-04T20:39:29.569Z,56.50
2023-03-04T20:41:14.901Z,56.16
2023-03-04T20:42:44.230Z,56.08
2023-03-04T20:44:08.611Z,56.23
2023-03-04T20:45:34.487Z,56.62
2023-03-04T20:46:59.500Z,56.32
2023-03-04T20:48:25.568Z,56.56
2023-03-04T20:49:49.880Z,56.83
2023-03-04T20:51:18.403Z,57.07
2023-03-04T20:52:40.137Z,56.53
2023-03-04T20:54:13.274Z,56.75
2023-03-04T20:55:50.275Z,56.79
2023-03-04T20:57:14.058Z,56.88
2023-03-04T20:58:56.430Z,56.58
2023-03-04T21:00:50.400Z,56.60
2023-03-04T21:02:43.417Z,56.56
2023-03-04T21:04:33.604Z,56.64
2023-03-04T21:06:14.051Z,56.19
2023-03-04T21:08:09.422Z,56.29
2023-03-04T21:10:03.691Z,55.59
2023-03-04T21:11:58.614Z,55.77
2023-03-04T21:13:54.407Z,56.23
2023-03-04T21:15:39.259Z,56.07
2023-03-04T21:17:24.461Z,56.26
2023-03-04T21:18:46.592Z,56.26
2023-03-04T21:20:10.394Z,56.78
2023-03-04T21:21:58.051Z,57.22
2023-03-04T21:23:49.874Z,56.96
2023-03-04T21:25:23.144Z,57.44
2023-03-04T21:27:08.604Z,57.28
2023-03-04T21:28:45.816Z,57.26
2023-03-04T21:30:30.900Z,57.35
2023-03-04T21:32:17.211Z,57.50
2023-03-04T21:34:04.917Z,57.51
2023-03-04T21:38:00.411Z,57.82
2023-03-04T21:39:29.185Z,58.09